Time;durP1;ratioP1;P1;durP2;ratioP2;P2;SDS_P1;SDS_P2;PMS_P1;PMS_P2;Temp;Humidity;BMP_temperature;BMP_pressure;BME280_temperature;BME280_humidity;BME280_pressure;Samples;Min_cycle;Max_cycle;Signal;HPM_P1;HPM_P2
2021/05/30 00:01:56;;;;;;;;;;;7.70;99.90;;;;;;5023323;28;19924;-54
2021/05/30 00:04:21;;;;;;;;;;;7.70;99.90;;;;;;5028291;28;19916;-53
2021/05/30 00:06:47;;;;;;;;;;;7.60;99.90;;;;;;5028186;28;20303;-54
2021/05/30 00:09:13;;;;;;;;;;;7.60;99.90;;;;;;5026237;28;20422;-53
2021/05/30 00:11:38;;;;;;;;;;;7.50;99.90;;;;;;5022536;28;19909;-54
2021/05/30 00:14:04;;;;;;;;;;;7.40;99.90;;;;;;5026090;28;19909;-52
2021/05/30 00:16:31;;;;;;;;;;;7.40;99.90;;;;;;5028526;28;19971;-52
2021/05/30 00:18:56;;;;;;;;;;;7.30;99.90;;;;;;5021680;28;19924;-53
2021/05/30 00:21:22;;;;;;;;;;;7.30;99.90;;;;;;5026973;28;20021;-53
2021/05/30 00:23:47;;;;;;;;;;;7.30;99.90;;;;;;5027845;28;19909;-54
2021/05/30 00:26:13;;;;;;;;;;;7.20;99.90;;;;;;5024862;28;19914;-54
2021/05/30 00:28:38;;;;;;;;;;;7.20;99.90;;;;;;5028200;28;19917;-52
2021/05/30 00:31:04;;;;;;;;;;;7.20;99.90;;;;;;5028468;28;20253;-54
2021/05/30 00:33:29;;;;;;;;;;;7.20;99.90;;;;;;5030606;28;20315;-54
2021/05/30 00:35:55;;;;;;;;;;;7.10;99.90;;;;;;5028711;28;20398;-52
2021/05/30 00:38:20;;;;;;;;;;;7.00;99.90;;;;;;5029064;28;19916;-56
2021/05/30 00:40:46;;;;;;;;;;;6.90;99.90;;;;;;5028901;28;19917;-53
2021/05/30 00:43:12;;;;;;;;;;;6.90;99.90;;;;;;5025563;28;20466;-55
2021/05/30 00:45:37;;;;;;;;;;;6.90;99.90;;;;;;5022895;28;19924;-52
2021/05/30 00:48:03;;;;;;;;;;;6.90;99.90;;;;;;5028314;28;20276;-54
2021/05/30 00:50:29;;;;;;;;;;;6.90;99.90;;;;;;5028100;28;19909;-54
2021/05/30 00:52:54;;;;;;;;;;;6.80;99.90;;;;;;5028200;28;19909;-53
2021/05/30 00:55:20;;;;;;;;;;;6.80;99.90;;;;;;5024447;28;20292;-53
2021/05/30 00:57:45;;;;;;;;;;;6.80;99.90;;;;;;5027692;28;19917;-54
2021/05/30 01:00:12;;;;;;;;;;;6.80;99.90;;;;;;5025706;28;19913;-55
2021/05/30 01:02:38;;;;;;;;;;;6.80;99.90;;;;;;5023717;28;19921;-55
2021/05/30 01:05:04;;;;;;;;;;;6.70;99.90;;;;;;5026335;28;19928;-53
2021/05/30 01:07:30;;;;;;;;;;;6.70;99.90;;;;;;5026449;28;19913;-54
2021/05/30 01:09:55;;;;;;;;;;;6.70;99.90;;;;;;5027276;28;19909;-56
2021/05/30 01:12:21;;;;;;;;;;;6.70;99.90;;;;;;5027208;28;19909;-54
2021/05/30 01:14:47;;;;;;;;;;;6.70;99.90;;;;;;5028197;28;19917;-52
2021/05/30 01:17:13;;;;;;;;;;;6.60;99.90;;;;;;5028251;28;19916;-53
2021/05/30 01:19:41;;;;;;;;;;;6.60;99.90;;;;;;5028086;28;19909;-54
2021/05/30 01:22:08;;;;;;;;;;;6.60;99.90;;;;;;5028861;28;20394;-52
2021/05/30 01:24:36;;;;;;;;;;;6.50;99.90;;;;;;5030685;28;19913;-53
2021/05/30 01:27:01;;;;;;;;;;;6.50;99.90;;;;;;5032008;28;19917;-51
2021/05/30 01:29:27;;;;;;;;;;;6.50;99.90;;;;;;5031891;28;20413;-55
2021/05/30 01:31:52;;;;;;;;;;;6.50;99.90;;;;;;5031995;28;19913;-53
2021/05/30 01:34:18;;;;;;;;;;;6.40;99.90;;;;;;5031846;28;19916;-54
2021/05/30 01:36:43;;;;;;;;;;;6.40;99.90;;;;;;5031756;28;19909;-53
2021/05/30 01:39:09;;;;;;;;;;;6.40;99.90;;;;;;5031791;28;19909;-52
2021/05/30 01:41:34;;;;;;;;;;;6.40;99.90;;;;;;5029826;28;19913;-52
2021/05/30 01:44:00;;;;;;;;;;;6.40;99.90;;;;;;5030318;28;19979;-53
2021/05/30 01:46:25;;;;;;;;;;;6.40;99.90;;;;;;5031133;28;19913;-55
2021/05/30 01:48:51;;;;;;;;;;;6.30;99.90;;;;;;5031271;28;19913;-52
2021/05/30 01:51:17;;;;;;;;;;;6.30;99.90;;;;;;5031293;28;19917;-55
2021/05/30 01:53:51;;;;;;;;;;;6.30;99.90;;;;;;5030714;28;20345;-52
2021/05/30 01:59:02;;;;;;;;;;;6.30;99.90;;;;;;5029516;28;19916;-54
2021/05/30 02:01:28;;;;;;;;;;;6.30;99.90;;;;;;5030685;28;19920;-52
2021/05/30 02:03:54;;;;;;;;;;;6.20;99.90;;;;;;5029522;28;19948;-52
2021/05/30 02:06:20;;;;;;;;;;;6.30;99.90;;;;;;5031156;28;19983;-52
2021/05/30 02:08:47;;;;;;;;;;;6.20;99.90;;;;;;5030428;28;19913;-52
2021/05/30 02:11:13;;;;;;;;;;;6.20;99.90;;;;;;5030676;28;19932;-52
2021/05/30 02:13:39;;;;;;;;;;;6.20;99.90;;;;;;5030938;28;20023;-55
2021/05/30 02:16:04;;;;;;;;;;;6.20;99.90;;;;;;5030782;28;19920;-52
2021/05/30 02:18:30;;;;;;;;;;;6.20;99.90;;;;;;5029807;28;19966;-53
2021/05/30 02:20:55;;;;;;;;;;;6.10;99.90;;;;;;5015384;28;20435;-52
2021/05/30 02:23:21;;;;;;;;;;;6.10;99.90;;;;;;5011985;28;20487;-53
2021/05/30 02:25:47;;;;;;;;;;;6.10;99.90;;;;;;5013270;28;19924;-53
2021/05/30 02:28:12;;;;;;;;;;;6.10;99.90;;;;;;5010547;28;19913;-53
2021/05/30 02:30:38;;;;;;;;;;;6.10;99.90;;;;;;5010831;28;20304;-55
2021/05/30 02:33:04;;;;;;;;;;;6.00;99.90;;;;;;5014136;28;19921;-54
2021/05/30 02:35:29;;;;;;;;;;;6.00;99.90;;;;;;5012089;28;19918;-53
2021/05/30 02:37:55;;;;;;;;;;;5.90;99.90;;;;;;5013705;28;19913;-52
2021/05/30 02:40:21;;;;;;;;;;;5.90;99.90;;;;;;5012031;28;20408;-52
2021/05/30 02:42:46;;;;;;;;;;;5.80;99.90;;;;;;5012026;28;19913;-53
2021/05/30 02:45:12;;;;;;;;;;;5.80;99.90;;;;;;5061901;22;20020;-62
2021/05/30 02:47:37;;;;;;;;;;;5.70;99.90;;;;;;5049194;28;20426;-62
2021/05/30 02:50:03;;;;;;;;;;;5.70;99.90;;;;;;5049701;28;19912;-61
2021/05/30 02:52:29;;;;;;;;;;;5.70;99.90;;;;;;5050110;28;19917;-62
2021/05/30 02:54:55;;;;;;;;;;;5.70;99.90;;;;;;5021044;28;19909;-62
2021/05/30 02:57:20;;;;;;;;;;;5.60;99.90;;;;;;5013197;28;19909;-62
2021/05/30 02:59:46;;;;;;;;;;;5.70;99.90;;;;;;5017312;28;19909;-62
2021/05/30 03:02:11;;;;;;;;;;;5.70;99.90;;;;;;5018669;28;19910;-62
2021/05/30 03:04:36;;;;;;;;;;;5.70;99.90;;;;;;5011727;28;20279;-63
2021/05/30 03:07:02;;;;;;;;;;;5.60;99.90;;;;;;5011332;28;19920;-60
2021/05/30 03:09:28;;;;;;;;;;;5.60;99.90;;;;;;5017477;28;19913;-61
2021/05/30 03:11:53;;;;;;;;;;;5.50;99.90;;;;;;5030513;28;20284;-60
2021/05/30 03:14:19;;;;;;;;;;;5.50;99.90;;;;;;5029903;28;19917;-63
2021/05/30 03:16:44;;;;;;;;;;;5.50;99.90;;;;;;5028909;28;19916;-62
2021/05/30 03:19:10;;;;;;;;;;;5.50;99.90;;;;;;5029333;28;19909;-60
2021/05/30 03:21:36;;;;;;;;;;;5.50;99.90;;;;;;5029525;28;20462;-61
2021/05/30 03:24:03;;;;;;;;;;;5.50;99.90;;;;;;5030011;28;19906;-63
2021/05/30 03:26:28;;;;;;;;;;;5.50;99.90;;;;;;5030098;28;19963;-62
2021/05/30 03:28:54;;;;;;;;;;;5.50;99.90;;;;;;5029887;28;20395;-60
2021/05/30 03:31:19;;;;;;;;;;;5.60;99.90;;;;;;5029699;28;20007;-62
2021/05/30 03:33:45;;;;;;;;;;;5.60;99.90;;;;;;5028332;28;19913;-60
2021/05/30 03:36:15;;;;;;;;;;;5.60;99.90;;;;;;5029805;28;19909;-60
2021/05/30 03:38:41;;;;;;;;;;;5.60;99.90;;;;;;5034142;28;19916;-60
2021/05/30 03:41:09;;;;;;;;;;;5.60;99.90;;;;;;5029607;28;19909;-60
2021/05/30 03:43:35;;;;;;;;;;;5.60;99.90;;;;;;5027146;28;19913;-58
2021/05/30 03:46:00;;;;;;;;;;;5.70;99.90;;;;;;5027830;28;19916;-62
2021/05/30 03:48:26;;;;;;;;;;;5.80;99.90;;;;;;5029415;28;19917;-60
2021/05/30 03:50:51;;;;;;;;;;;5.80;99.90;;;;;;5029101;28;20755;-58
2021/05/30 03:53:18;;;;;;;;;;;5.80;99.90;;;;;;5029644;28;19913;-60
2021/05/30 03:55:44;;;;;;;;;;;5.90;99.90;;;;;;5029409;28;20509;-59
2021/05/30 03:58:09;;;;;;;;;;;5.90;99.90;;;;;;5029497;28;19958;-60
2021/05/30 04:00:35;;;;;;;;;;;5.90;99.90;;;;;;5027638;28;19909;-59
2021/05/30 04:03:00;;;;;;;;;;;6.00;99.90;;;;;;5029171;28;19910;-59
2021/05/30 04:05:26;;;;;;;;;;;6.10;99.90;;;;;;5028872;28;19913;-61
2021/05/30 04:07:51;;;;;;;;;;;6.10;99.90;;;;;;5027962;28;20412;-61
2021/05/30 04:10:17;;;;;;;;;;;6.20;99.90;;;;;;5029282;28;19909;-61
2021/05/30 04:12:42;;;;;;;;;;;6.20;99.90;;;;;;5029316;28;19964;-60
2021/05/30 04:15:12;;;;;;;;;;;6.30;99.90;;;;;;5028438;28;19920;-60
2021/05/30 04:17:38;;;;;;;;;;;6.40;99.90;;;;;;5029629;28;19916;-61
2021/05/30 04:20:04;;;;;;;;;;;6.50;99.90;;;;;;5023831;28;20023;-59
2021/05/30 04:22:30;;;;;;;;;;;6.50;99.90;;;;;;5025104;28;19913;-60
2021/05/30 04:24:55;;;;;;;;;;;6.60;99.90;;;;;;5029708;28;20445;-61
2021/05/30 04:27:21;;;;;;;;;;;6.70;99.90;;;;;;5023291;28;19924;-61
2021/05/30 04:29:47;;;;;;;;;;;6.80;99.90;;;;;;5029382;28;19996;-59
2021/05/30 04:32:12;;;;;;;;;;;6.80;99.90;;;;;;5029415;28;20279;-61
2021/05/30 04:34:37;;;;;;;;;;;6.90;99.90;;;;;;5029231;28;20403;-61
2021/05/30 04:37:04;;;;;;;;;;;7.00;99.90;;;;;;5029717;28;19913;-59
2021/05/30 04:39:31;;;;;;;;;;;7.10;99.90;;;;;;5028707;28;19936;-61
2021/05/30 04:42:02;;;;;;;;;;;7.20;99.90;;;;;;5027898;28;19909;-60
2021/05/30 04:44:28;;;;;;;;;;;7.20;99.90;;;;;;5030000;28;19921;-59
2021/05/30 04:46:53;;;;;;;;;;;7.30;99.90;;;;;;5029353;28;20421;-60
2021/05/30 04:49:19;;;;;;;;;;;7.40;99.90;;;;;;5029201;28;19916;-61
2021/05/30 04:51:44;;;;;;;;;;;7.40;99.90;;;;;;5028865;28;19909;-61
2021/05/30 04:54:10;;;;;;;;;;;7.50;99.90;;;;;;5027507;28;19909;-61
2021/05/30 04:56:35;;;;;;;;;;;7.50;99.90;;;;;;5031371;28;19984;-60
2021/05/30 04:59:01;;;;;;;;;;;7.60;99.90;;;;;;5032718;28;19917;-58
2021/05/30 05:01:26;;;;;;;;;;;7.60;99.90;;;;;;5032483;28;20071;-61
2021/05/30 05:03:52;;;;;;;;;;;7.60;99.90;;;;;;5031407;28;19955;-62
2021/05/30 05:06:17;;;;;;;;;;;7.70;99.90;;;;;;5032493;28;19914;-61
2021/05/30 05:08:43;;;;;;;;;;;7.80;99.90;;;;;;5032647;28;19936;-61
2021/05/30 05:11:09;;;;;;;;;;;7.90;99.90;;;;;;5030927;28;19909;-61
2021/05/30 05:13:35;;;;;;;;;;;7.90;99.90;;;;;;5032831;28;19949;-61
2021/05/30 05:16:01;;;;;;;;;;;8.00;99.90;;;;;;5032372;28;19913;-61
2021/05/30 05:18:29;;;;;;;;;;;7.90;99.90;;;;;;5032658;28;19916;-60
2021/05/30 05:20:54;;;;;;;;;;;7.90;99.90;;;;;;5032156;28;19963;-61
2021/05/30 05:23:24;;;;;;;;;;;8.00;99.90;;;;;;5032610;28;19909;-58
2021/05/30 05:25:50;;;;;;;;;;;8.00;99.90;;;;;;5030904;28;19909;-61
2021/05/30 05:28:15;;;;;;;;;;;8.10;99.90;;;;;;5032027;28;20008;-60
2021/05/30 05:30:41;;;;;;;;;;;8.10;99.90;;;;;;5030741;28;20008;-60
2021/05/30 05:33:07;;;;;;;;;;;8.20;99.90;;;;;;5032376;28;19905;-61
2021/05/30 05:35:32;;;;;;;;;;;8.20;99.90;;;;;;5032181;28;19910;-61
2021/05/30 05:37:58;;;;;;;;;;;8.30;99.90;;;;;;5030579;28;20286;-61
2021/05/30 05:40:24;;;;;;;;;;;8.30;99.90;;;;;;5031873;28;19913;-61
2021/05/30 05:42:50;;;;;;;;;;;8.40;99.90;;;;;;5031724;28;19959;-59
2021/05/30 05:45:16;;;;;;;;;;;8.40;99.90;;;;;;5029835;28;20349;-61
2021/05/30 05:47:43;;;;;;;;;;;8.40;99.90;;;;;;5032143;28;19921;-62
2021/05/30 05:50:13;;;;;;;;;;;8.50;99.90;;;;;;5023539;28;19980;-61
2021/05/30 05:52:39;;;;;;;;;;;8.50;99.90;;;;;;5016596;28;20036;-59
2021/05/30 05:55:08;;;;;;;;;;;8.60;99.90;;;;;;5025547;28;19909;-59
2021/05/30 05:57:35;;;;;;;;;;;8.60;99.90;;;;;;5031016;28;20272;-62
2021/05/30 06:00:00;;;;;;;;;;;8.60;99.90;;;;;;5030870;28;20367;-61
2021/05/30 06:02:26;;;;;;;;;;;8.60;99.90;;;;;;5029892;28;19916;-61
2021/05/30 06:04:51;;;;;;;;;;;8.60;99.90;;;;;;5030134;28;19909;-60
2021/05/30 06:07:17;;;;;;;;;;;8.70;99.90;;;;;;5030634;28;19920;-61
2021/05/30 06:09:42;;;;;;;;;;;8.80;99.90;;;;;;5031184;28;19916;-60
2021/05/30 06:12:08;;;;;;;;;;;8.90;99.90;;;;;;5031197;28;19920;-62
2021/05/30 06:14:34;;;;;;;;;;;8.90;99.90;;;;;;5031064;28;19909;-60
2021/05/30 06:16:59;;;;;;;;;;;8.90;99.90;;;;;;5031209;28;19916;-61
2021/05/30 06:19:26;;;;;;;;;;;9.00;99.90;;;;;;5028779;28;20553;-61
2021/05/30 06:21:51;;;;;;;;;;;9.10;99.90;;;;;;5028374;28;20399;-61
2021/05/30 06:24:17;;;;;;;;;;;9.10;99.90;;;;;;5025623;28;19921;-60
2021/05/30 06:26:42;;;;;;;;;;;9.20;99.90;;;;;;5018341;28;19914;-60
2021/05/30 06:29:08;;;;;;;;;;;9.30;99.90;;;;;;5014872;28;19914;-62
2021/05/30 06:31:33;;;;;;;;;;;9.40;99.90;;;;;;5011672;28;19910;-60
2021/05/30 06:33:59;;;;;;;;;;;9.50;99.90;;;;;;5011597;28;21535;-61
2021/05/30 06:36:24;;;;;;;;;;;9.60;99.90;;;;;;5011755;28;19957;-60
2021/05/30 06:38:50;;;;;;;;;;;9.70;99.90;;;;;;5026161;28;19963;-61
2021/05/30 06:41:17;;;;;;;;;;;9.70;99.90;;;;;;5014529;28;19909;-61
2021/05/30 06:43:43;;;;;;;;;;;9.80;99.90;;;;;;5016511;28;19924;-61
2021/05/30 06:46:08;;;;;;;;;;;9.80;99.90;;;;;;5013775;28;19913;-59
2021/05/30 06:48:33;;;;;;;;;;;9.90;99.90;;;;;;5011589;28;19913;-59
2021/05/30 06:51:16;;;;;;;;;;;9.90;99.90;;;;;;5028819;28;19921;-60
2021/05/30 06:53:44;;;;;;;;;;;10.10;99.90;;;;;;5029495;28;19963;-61
2021/05/30 06:56:10;;;;;;;;;;;10.20;99.90;;;;;;5012281;28;19910;-60
2021/05/30 06:58:35;;;;;;;;;;;10.30;99.90;;;;;;5012366;28;19932;-60
2021/05/30 07:01:01;;;;;;;;;;;10.40;99.90;;;;;;5013936;28;19964;-61
2021/05/30 07:03:26;;;;;;;;;;;10.50;99.90;;;;;;5013933;28;19965;-59
2021/05/30 07:05:52;;;;;;;;;;;10.60;99.90;;;;;;5009473;28;19913;-60
2021/05/30 07:08:17;;;;;;;;;;;10.60;99.90;;;;;;5015839;28;19918;-60
2021/05/30 07:10:43;;;;;;;;;;;10.60;99.90;;;;;;5012724;28;19978;-60
2021/05/30 07:13:08;;;;;;;;;;;10.60;99.90;;;;;;5015817;28;19906;-60
2021/05/30 07:15:34;;;;;;;;;;;10.70;99.90;;;;;;5013048;28;20395;-59
2021/05/30 07:17:59;;;;;;;;;;;10.70;99.90;;;;;;5012112;28;19917;-60
2021/05/30 07:20:25;;;;;;;;;;;10.70;99.90;;;;;;5023909;28;20005;-60
2021/05/30 07:22:51;;;;;;;;;;;10.90;99.90;;;;;;5010913;28;19909;-61
2021/05/30 07:25:16;;;;;;;;;;;11.00;99.90;;;;;;5012495;28;19918;-61
2021/05/30 07:27:42;;;;;;;;;;;11.30;99.90;;;;;;5029364;28;20009;-61
2021/05/30 07:30:07;;;;;;;;;;;11.60;99.90;;;;;;5011829;28;19917;-60
2021/05/30 07:32:33;;;;;;;;;;;11.90;99.90;;;;;;5011410;28;20376;-61
2021/05/30 07:34:59;;;;;;;;;;;12.00;99.90;;;;;;5024919;28;19960;-61
2021/05/30 07:37:24;;;;;;;;;;;12.40;99.90;;;;;;5009879;28;19964;-61
2021/05/30 07:39:50;;;;;;;;;;;12.80;99.90;;;;;;5012950;28;19913;-60
2021/05/30 07:42:15;;;;;;;;;;;13.10;99.90;;;;;;5015912;28;19910;-60
2021/05/30 07:44:41;;;;;;;;;;;13.20;99.90;;;;;;5013250;28;19917;-61
2021/05/30 07:47:07;;;;;;;;;;;13.20;99.90;;;;;;5015422;28;19939;-59
2021/05/30 07:49:33;;;;;;;;;;;13.20;99.90;;;;;;5025244;28;19913;-60
2021/05/30 07:51:59;;;;;;;;;;;13.10;99.90;;;;;;5025210;28;19957;-60
2021/05/30 07:54:25;;;;;;;;;;;13.20;99.90;;;;;;5012136;28;19996;-60
2021/05/30 07:56:50;;;;;;;;;;;13.30;99.90;;;;;;5012071;28;19909;-61
2021/05/30 07:59:16;;;;;;;;;;;13.60;99.90;;;;;;5014311;28;20013;-60
2021/05/30 08:01:42;;;;;;;;;;;14.00;99.90;;;;;;5012621;28;19992;-60
2021/05/30 08:04:08;;;;;;;;;;;14.20;99.90;;;;;;5010892;28;20004;-59
2021/05/30 08:06:33;;;;;;;;;;;14.40;99.90;;;;;;5012350;28;19921;-60
2021/05/30 08:08:59;;;;;;;;;;;14.40;99.90;;;;;;5009128;28;19924;-61
2021/05/30 08:11:28;;;;;;;;;;;14.70;99.90;;;;;;5010072;28;19968;-60
2021/05/30 08:13:54;;;;;;;;;;;14.90;99.90;;;;;;5012040;28;19956;-60
2021/05/30 08:16:20;;;;;;;;;;;15.10;99.90;;;;;;5027560;28;19945;-60
2021/05/30 08:18:46;;;;;;;;;;;15.50;99.90;;;;;;5028477;28;20427;-61
2021/05/30 08:21:11;;;;;;;;;;;15.80;99.90;;;;;;5026549;28;19963;-58
2021/05/30 08:23:40;;;;;;;;;;;16.00;99.90;;;;;;5028997;28;19921;-59
2021/05/30 08:26:05;;;;;;;;;;;16.30;99.90;;;;;;5028779;28;19909;-60
2021/05/30 08:28:31;;;;;;;;;;;16.40;99.90;;;;;;5024766;28;19971;-59
2021/05/30 08:30:56;;;;;;;;;;;16.40;99.90;;;;;;5011483;28;20460;-59
2021/05/30 08:33:22;;;;;;;;;;;16.50;99.90;;;;;;5008995;28;19909;-59
2021/05/30 08:35:48;;;;;;;;;;;16.60;99.90;;;;;;5024049;28;19921;-60
2021/05/30 08:38:13;;;;;;;;;;;16.80;99.90;;;;;;5028861;28;19909;-60
2021/05/30 08:40:40;;;;;;;;;;;16.70;99.90;;;;;;5010388;28;19972;-60
2021/05/30 08:43:06;;;;;;;;;;;16.90;99.90;;;;;;5011710;28;19917;-59
2021/05/30 08:45:31;;;;;;;;;;;17.10;99.90;;;;;;5042674;22;19929;-77
2021/05/30 08:47:57;;;;;;;;;;;17.30;99.90;;;;;;5048329;28;19928;-77
2021/05/30 08:50:22;;;;;;;;;;;17.50;99.90;;;;;;5047847;28;19944;-76
2021/05/30 08:52:48;;;;;;;;;;;17.60;99.90;;;;;;5027314;28;20020;-77
2021/05/30 08:55:13;;;;;;;;;;;17.80;99.90;;;;;;5014692;28;19910;-77
2021/05/30 08:57:39;;;;;;;;;;;17.80;99.90;;;;;;5020292;28;20434;-76
2021/05/30 09:00:06;;;;;;;;;;;18.00;99.90;;;;;;5019983;28;20391;-76
2021/05/30 09:02:31;;;;;;;;;;;18.20;99.90;;;;;;5019860;28;19914;-77
2021/05/30 09:05:00;;;;;;;;;;;18.30;99.90;;;;;;5020553;28;19917;-77
2021/05/30 09:07:37;;;;;;;;;;;18.20;99.90;;;;;;5032854;28;19952;-77
2021/05/30 09:10:04;;;;;;;;;;;18.40;99.90;;;;;;5018315;28;20437;-77
2021/05/30 09:12:34;;;;;;;;;;;18.50;99.90;;;;;;5017560;28;19909;-76
2021/05/30 09:15:03;;;;;;;;;;;18.80;99.90;;;;;;5020518;28;20350;-78
2021/05/30 09:17:29;;;;;;;;;;;19.10;99.90;;;;;;5015572;28;19909;-76
2021/05/30 09:19:58;;;;;;;;;;;19.10;99.90;;;;;;5019900;28;19913;-77
2021/05/30 09:22:28;;;;;;;;;;;19.20;99.90;;;;;;5017887;28;19917;-76
2021/05/30 09:25:00;;;;;;;;;;;19.20;99.00;;;;;;5018608;28;19941;-76
2021/05/30 09:27:27;;;;;;;;;;;18.60;99.90;;;;;;5024563;28;20004;-77
2021/05/30 09:30:12;;;;;;;;;;;18.60;99.90;;;;;;5021335;28;20012;-77
2021/05/30 09:32:53;;;;;;;;;;;18.80;99.90;;;;;;5020187;28;19916;-76
2021/05/30 09:35:19;;;;;;;;;;;19.00;99.90;;;;;;5019239;28;19909;-77
2021/05/30 09:37:45;;;;;;;;;;;19.20;99.90;;;;;;5016551;28;19957;-78
2021/05/30 09:40:10;;;;;;;;;;;19.50;99.90;;;;;;5015408;28;20019;-77
2021/05/30 09:42:36;;;;;;;;;;;19.70;99.90;;;;;;5017781;28;19917;-79
2021/05/30 09:45:10;;;;;;;;;;;20.00;99.90;;;;;;5022306;28;19925;-79
2021/05/30 09:47:41;;;;;;;;;;;20.20;97.50;;;;;;5022512;28;20414;-80
2021/05/30 09:50:08;;;;;;;;;;;20.30;96.90;;;;;;5023448;28;20036;-79
2021/05/30 09:52:37;;;;;;;;;;;19.70;95.20;;;;;;5026728;28;19909;-79
2021/05/30 09:55:16;;;;;;;;;;;19.50;96.80;;;;;;5025548;28;19913;-79
2021/05/30 09:58:02;;;;;;;;;;;18.90;96.90;;;;;;5025728;28;19913;-78
2021/05/30 10:00:27;;;;;;;;;;;18.60;98.80;;;;;;5021050;28;19913;-78
2021/05/30 10:02:53;;;;;;;;;;;18.20;99.90;;;;;;5023912;28;19919;-79
2021/05/30 10:05:19;;;;;;;;;;;18.40;99.90;;;;;;5025713;28;19914;-79
2021/05/30 10:07:45;;;;;;;;;;;19.00;99.90;;;;;;5021701;28;20715;-81
2021/05/30 10:10:11;;;;;;;;;;;19.20;99.90;;;;;;5020113;28;19959;-79
2021/05/30 10:12:37;;;;;;;;;;;19.50;98.60;;;;;;5027618;28;20283;-79
2021/05/30 10:15:02;;;;;;;;;;;18.80;98.80;;;;;;5022356;28;20001;-79
2021/05/30 10:17:30;;;;;;;;;;;19.10;99.90;;;;;;5019157;28;20016;-76
2021/05/30 10:19:58;;;;;;;;;;;19.60;99.90;;;;;;5026912;28;19963;-78
2021/05/30 10:22:24;;;;;;;;;;;18.90;96.70;;;;;;5029244;28;20467;-79
2021/05/30 10:24:49;;;;;;;;;;;19.10;99.90;;;;;;5022885;28;19989;-78
2021/05/30 10:27:16;;;;;;;;;;;19.20;99.90;;;;;;5021640;28;20406;-80
2021/05/30 10:30:00;;;;;;;;;;;19.50;99.90;;;;;;5028312;28;19917;-79
2021/05/30 10:32:26;;;;;;;;;;;19.60;99.30;;;;;;5024424;28;19960;-79
2021/05/30 10:35:10;;;;;;;;;;;19.50;99.90;;;;;;5023114;28;19913;-79
2021/05/30 10:37:40;;;;;;;;;;;19.70;99.30;;;;;;5040372;28;19906;-79
2021/05/30 10:40:25;;;;;;;;;;;19.60;99.50;;;;;;5025041;28;19910;-78
2021/05/30 10:43:09;;;;;;;;;;;19.90;97.50;;;;;;5023464;28;19913;-79
2021/05/30 10:45:34;;;;;;;;;;;20.00;98.70;;;;;;5022777;28;19917;-80
2021/05/30 10:48:02;;;;;;;;;;;20.20;96.70;;;;;;5022734;28;19920;-79
2021/05/30 10:50:58;;;;;;;;;;;20.50;99.20;;;;;;5039788;28;19909;-78
2021/05/30 10:53:32;;;;;;;;;;;20.90;96.20;;;;;;5021504;28;20000;-79
2021/05/30 10:56:39;;;;;;;;;;;20.80;90.40;;;;;;5025071;28;19913;-79
2021/05/30 10:59:11;;;;;;;;;;;20.50;91.90;;;;;;5010620;28;19914;-79
2021/05/30 11:01:40;;;;;;;;;;;20.40;92.80;;;;;;5018832;28;20000;-77
2021/05/30 11:04:28;;;;;;;;;;;20.40;92.40;;;;;;5018642;28;19909;-77
2021/05/30 11:06:54;;;;;;;;;;;20.40;90.80;;;;;;5021684;28;19933;-79
2021/05/30 11:09:20;;;;;;;;;;;20.50;96.40;;;;;;5020762;28;19916;-77
2021/05/30 11:11:46;;;;;;;;;;;20.50;99.20;;;;;;5017177;28;20351;-76
2021/05/30 11:14:15;;;;;;;;;;;20.50;96.20;;;;;;5021748;28;19918;-78
2021/05/30 11:16:45;;;;;;;;;;;20.50;94.70;;;;;;5018973;28;20521;-77
2021/05/30 11:19:14;;;;;;;;;;;20.70;93.70;;;;;;5027972;28;20287;-77
2021/05/30 11:21:43;;;;;;;;;;;21.10;96.10;;;;;;5022434;28;19910;-76
2021/05/30 11:24:11;;;;;;;;;;;21.40;91.00;;;;;;5019934;28;19915;-77
2021/05/30 11:26:37;;;;;;;;;;;21.40;88.80;;;;;;5017508;28;19909;-77
2021/05/30 11:29:03;;;;;;;;;;;21.20;91.20;;;;;;5021436;28;19928;-80
2021/05/30 11:31:28;;;;;;;;;;;20.80;91.20;;;;;;5026220;28;20291;-77
2021/05/30 11:33:57;;;;;;;;;;;20.60;90.10;;;;;;5038582;28;19913;-76
2021/05/30 11:36:22;;;;;;;;;;;20.20;94.30;;;;;;5018077;28;19936;-78
2021/05/30 11:38:52;;;;;;;;;;;20.10;94.10;;;;;;5025810;28;20376;-77
2021/05/30 11:41:37;;;;;;;;;;;20.20;94.50;;;;;;5026409;28;19958;-77
2021/05/30 11:44:05;;;;;;;;;;;19.80;93.20;;;;;;5016843;28;19909;-77
2021/05/30 11:46:35;;;;;;;;;;;20.20;98.80;;;;;;5025696;28;20068;-75
2021/05/30 11:49:04;;;;;;;;;;;20.50;94.10;;;;;;5036219;28;20401;-77
2021/05/30 11:51:48;;;;;;;;;;;20.80;95.80;;;;;;5025060;28;19909;-77
2021/05/30 11:54:14;;;;;;;;;;;21.00;95.20;;;;;;5015923;28;19956;-77
2021/05/30 11:56:40;;;;;;;;;;;21.10;95.20;;;;;;5028708;28;19951;-78
2021/05/30 11:59:06;;;;;;;;;;;21.40;92.80;;;;;;5028130;28;19909;-77
2021/05/30 12:01:47;;;;;;;;;;;21.50;94.60;;;;;;5026977;28;19920;-77
2021/05/30 12:04:22;;;;;;;;;;;21.90;93.30;;;;;;5027839;28;19970;-77
2021/05/30 12:06:47;;;;;;;;;;;22.00;91.50;;;;;;5028695;28;20256;-76
2021/05/30 12:09:13;;;;;;;;;;;21.50;90.00;;;;;;5027894;28;19920;-79
2021/05/30 12:11:40;;;;;;;;;;;21.50;91.20;;;;;;5029164;28;19916;-77
2021/05/30 12:14:06;;;;;;;;;;;21.30;92.40;;;;;;5027918;28;20004;-77
2021/05/30 12:16:31;;;;;;;;;;;21.50;93.30;;;;;;5028236;28;20149;-77
2021/05/30 12:18:58;;;;;;;;;;;21.20;94.30;;;;;;5028175;28;19909;-77
2021/05/30 12:21:25;;;;;;;;;;;21.30;95.90;;;;;;5026667;28;19917;-77
2021/05/30 12:23:51;;;;;;;;;;;21.40;93.70;;;;;;5028247;28;19917;-77
2021/05/30 12:26:17;;;;;;;;;;;21.50;93.60;;;;;;5027849;28;19909;-76
2021/05/30 12:28:43;;;;;;;;;;;21.50;94.40;;;;;;5029162;28;19921;-77
2021/05/30 12:31:10;;;;;;;;;;;21.60;94.40;;;;;;5027546;28;20394;-77
2021/05/30 12:33:54;;;;;;;;;;;22.00;94.00;;;;;;5028811;28;20518;-77
2021/05/30 12:36:29;;;;;;;;;;;22.20;91.40;;;;;;5019959;28;19932;-77
2021/05/30 12:39:14;;;;;;;;;;;22.00;91.50;;;;;;5013469;28;19916;-78
2021/05/30 12:41:42;;;;;;;;;;;21.80;91.70;;;;;;5022829;28;19959;-76
2021/05/30 12:44:11;;;;;;;;;;;22.10;91.10;;;;;;5017623;28;20424;-77
2021/05/30 12:46:37;;;;;;;;;;;22.00;91.90;;;;;;5028893;28;19917;-77
2021/05/30 12:49:13;;;;;;;;;;;21.90;93.10;;;;;;5029100;28;20006;-76
2021/05/30 12:51:39;;;;;;;;;;;21.80;91.70;;;;;;5028342;28;19909;-76
2021/05/30 12:54:18;;;;;;;;;;;22.20;94.30;;;;;;5027817;28;19909;-76
2021/05/30 12:56:47;;;;;;;;;;;22.50;92.40;;;;;;5027989;28;20363;-78
2021/05/30 12:59:14;;;;;;;;;;;22.70;90.90;;;;;;5028813;28;19909;-77
2021/05/30 13:01:42;;;;;;;;;;;22.70;91.30;;;;;;5025772;28;19975;-75
2021/05/30 13:04:17;;;;;;;;;;;22.70;89.80;;;;;;5028968;28;20390;-76
2021/05/30 13:06:55;;;;;;;;;;;22.20;92.30;;;;;;5028971;28;19920;-76
2021/05/30 13:09:20;;;;;;;;;;;22.20;91.80;;;;;;5026422;28;20056;-76
2021/05/30 13:11:46;;;;;;;;;;;22.00;93.50;;;;;;5019891;28;20000;-78
2021/05/30 13:14:27;;;;;;;;;;;22.00;93.70;;;;;;5016842;28;19913;-77
2021/05/30 13:17:13;;;;;;;;;;;22.00;94.20;;;;;;5023741;28;20011;-75
2021/05/30 13:19:57;;;;;;;;;;;22.20;93.60;;;;;;5025387;28;20647;-76
2021/05/30 13:22:23;;;;;;;;;;;22.30;92.00;;;;;;5023023;28;19955;-77
2021/05/30 13:24:48;;;;;;;;;;;22.50;92.80;;;;;;5025629;28;20408;-76
2021/05/30 13:27:20;;;;;;;;;;;22.80;93.00;;;;;;5021179;28;19917;-76
2021/05/30 13:29:58;;;;;;;;;;;22.50;91.40;;;;;;5021023;28;19963;-77
2021/05/30 13:32:24;;;;;;;;;;;22.70;91.90;;;;;;5022211;28;19909;-75
2021/05/30 13:34:49;;;;;;;;;;;22.80;91.90;;;;;;5025675;28;19916;-77
2021/05/30 13:37:15;;;;;;;;;;;22.80;94.00;;;;;;5019820;28;19917;-76
2021/05/30 13:39:40;;;;;;;;;;;22.80;91.80;;;;;;5019464;28;19975;-77
2021/05/30 13:42:06;;;;;;;;;;;23.00;91.70;;;;;;5020331;28;20379;-77
2021/05/30 13:44:31;;;;;;;;;;;23.00;91.80;;;;;;5020650;28;20372;-77
2021/05/30 13:46:56;;;;;;;;;;;23.00;90.40;;;;;;5023575;28;19997;-77
2021/05/30 13:49:22;;;;;;;;;;;23.20;91.60;;;;;;5020650;28;19949;-77
2021/05/30 13:51:47;;;;;;;;;;;23.40;87.90;;;;;;5025020;28;19910;-78
2021/05/30 13:54:13;;;;;;;;;;;23.30;89.40;;;;;;5026173;28;19910;-77
2021/05/30 13:56:38;;;;;;;;;;;23.20;83.40;;;;;;5020188;28;20292;-77
2021/05/30 13:59:04;;;;;;;;;;;23.30;82.30;;;;;;5023505;28;20429;-76
2021/05/30 14:01:29;;;;;;;;;;;22.90;81.20;;;;;;5021202;28;20708;-77
2021/05/30 14:03:55;;;;;;;;;;;23.00;86.60;;;;;;5017294;28;19913;-77
2021/05/30 14:06:21;;;;;;;;;;;22.70;78.60;;;;;;5023370;28;19921;-78
2021/05/30 14:08:46;;;;;;;;;;;22.60;80.90;;;;;;5019802;28;19919;-78
2021/05/30 14:11:12;;;;;;;;;;;22.60;84.20;;;;;;5020309;28;19924;-77
2021/05/30 14:13:38;;;;;;;;;;;22.60;83.80;;;;;;5024361;28;20585;-76
2021/05/30 14:16:04;;;;;;;;;;;22.50;81.30;;;;;;5019091;28;19952;-77
2021/05/30 14:18:29;;;;;;;;;;;22.60;81.80;;;;;;5020997;28;19949;-76
2021/05/30 14:20:55;;;;;;;;;;;22.50;80.00;;;;;;5019861;28;19916;-76
2021/05/30 14:23:20;;;;;;;;;;;22.40;75.80;;;;;;5019493;28;19917;-76
2021/05/30 14:25:46;;;;;;;;;;;22.40;79.80;;;;;;5019991;28;20284;-78
2021/05/30 14:28:11;;;;;;;;;;;22.40;80.20;;;;;;5025687;28;19917;-77